sensor_id;sensor_type;location;lat;lon;timestamp;P1;durP1;ratioP1;P2;durP2;ratioP2
25345;SDS011;13300;51.032;3.710;2022-12-18T00:02:14;121.50;;;52.37;;
25345;SDS011;13300;51.032;3.710;2022-12-18T00:05:03;135.63;;;58.03;;
25345;SDS011;13300;51.032;3.710;2022-12-18T00:08:01;120.63;;;53.00;;
25345;SDS011;13300;51.032;3.710;2022-12-18T00:14:21;129.87;;;54.23;;
25345;SDS011;13300;51.032;3.710;2022-12-18T00:19:42;145.23;;;54.80;;
25345;SDS011;13300;51.032;3.710;2022-12-18T00:22:08;119.00;;;51.77;;
25345;SDS011;13300;51.032;3.710;2022-12-18T00:24:45;127.33;;;54.00;;
25345;SDS011;13300;51.032;3.710;2022-12-18T00:27:19;136.73;;;54.63;;
25345;SDS011;13300;51.032;3.710;2022-12-18T00:29:49;131.13;;;54.20;;
25345;SDS011;13300;51.032;3.710;2022-12-18T00:32:41;135.63;;;56.00;;
25345;SDS011;13300;51.032;3.710;2022-12-18T00:38:17;135.07;;;55.30;;
25345;SDS011;13300;51.032;3.710;2022-12-18T00:40:50;147.80;;;57.30;;
25345;SDS011;13300;51.032;3.710;2022-12-18T00:43:36;140.07;;;55.33;;
25345;SDS011;13300;51.032;3.710;2022-12-18T00:46:26;128.45;;;52.45;;
25345;SDS011;13300;51.032;3.710;2022-12-18T00:49:07;126.27;;;51.23;;
25345;SDS011;13300;51.032;3.710;2022-12-18T00:52:05;131.30;;;51.63;;
25345;SDS011;13300;51.032;3.710;2022-12-18T00:54:51;128.93;;;51.38;;
25345;SDS011;13300;51.032;3.710;2022-12-18T01:00:50;138.80;;;52.93;;
25345;SDS011;13300;51.032;3.710;2022-12-18T01:04:05;122.50;;;49.73;;
25345;SDS011;13300;51.032;3.710;2022-12-18T01:07:06;122.10;;;49.22;;
25345;SDS011;13300;51.032;3.710;2022-12-18T01:10:00;126.60;;;47.07;;
25345;SDS011;13300;51.032;3.710;2022-12-18T01:12:51;120.55;;;47.88;;
25345;SDS011;13300;51.032;3.710;2022-12-18T01:15:51;116.80;;;46.67;;
25345;SDS011;13300;51.032;3.710;2022-12-18T01:19:13;121.50;;;46.83;;
25345;SDS011;13300;51.032;3.710;2022-12-18T01:22:09;123.80;;;48.07;;
25345;SDS011;13300;51.032;3.710;2022-12-18T01:24:51;124.67;;;47.10;;
25345;SDS011;13300;51.032;3.710;2022-12-18T01:27:24;117.40;;;46.37;;
25345;SDS011;13300;51.032;3.710;2022-12-18T01:29:52;118.93;;;47.87;;
25345;SDS011;13300;51.032;3.710;2022-12-18T01:32:47;118.90;;;48.47;;
25345;SDS011;13300;51.032;3.710;2022-12-18T01:35:45;125.67;;;47.70;;
25345;SDS011;13300;51.032;3.710;2022-12-18T01:38:23;116.97;;;47.43;;
25345;SDS011;13300;51.032;3.710;2022-12-18T01:40:56;121.67;;;47.30;;
25345;SDS011;13300;51.032;3.710;2022-12-18T01:43:55;120.45;;;46.20;;
25345;SDS011;13300;51.032;3.710;2022-12-18T01:46:29;121.63;;;45.97;;
25345;SDS011;13300;51.032;3.710;2022-12-18T01:49:05;116.80;;;46.80;;
25345;SDS011;13300;51.032;3.710;2022-12-18T01:51:55;111.13;;;43.67;;
25345;SDS011;13300;51.032;3.710;2022-12-18T01:54:24;120.20;;;45.63;;
25345;SDS011;13300;51.032;3.710;2022-12-18T01:56:50;103.47;;;43.23;;
25345;SDS011;13300;51.032;3.710;2022-12-18T01:59:16;115.90;;;43.07;;
25345;SDS011;13300;51.032;3.710;2022-12-18T02:01:42;123.10;;;45.27;;
25345;SDS011;13300;51.032;3.710;2022-12-18T02:04:28;120.37;;;44.90;;
25345;SDS011;13300;51.032;3.710;2022-12-18T02:10:29;114.37;;;41.47;;
25345;SDS011;13300;51.032;3.710;2022-12-18T02:13:32;108.97;;;41.93;;
25345;SDS011;13300;51.032;3.710;2022-12-18T02:17:13;107.07;;;40.60;;
25345;SDS011;13300;51.032;3.710;2022-12-18T02:27:41;99.03;;;38.13;;
25345;SDS011;13300;51.032;3.710;2022-12-18T02:30:28;96.60;;;38.30;;
25345;SDS011;13300;51.032;3.710;2022-12-18T02:33:12;101.80;;;38.20;;
25345;SDS011;13300;51.032;3.710;2022-12-18T02:35:41;90.37;;;37.50;;
25345;SDS011;13300;51.032;3.710;2022-12-18T02:38:11;97.83;;;37.23;;
25345;SDS011;13300;51.032;3.710;2022-12-18T02:40:39;102.67;;;39.73;;
25345;SDS011;13300;51.032;3.710;2022-12-18T02:43:11;102.03;;;37.67;;
25345;SDS011;13300;51.032;3.710;2022-12-18T02:45:53;105.70;;;39.30;;
25345;SDS011;13300;51.032;3.710;2022-12-18T02:48:31;90.87;;;37.40;;
25345;SDS011;13300;51.032;3.710;2022-12-18T02:58:04;92.73;;;36.00;;
25345;SDS011;13300;51.032;3.710;2022-12-18T03:03:56;84.93;;;35.07;;
25345;SDS011;13300;51.032;3.710;2022-12-18T03:06:42;94.83;;;34.50;;
25345;SDS011;13300;51.032;3.710;2022-12-18T03:09:42;83.07;;;33.70;;
25345;SDS011;13300;51.032;3.710;2022-12-18T03:12:28;89.00;;;33.50;;
25345;SDS011;13300;51.032;3.710;2022-12-18T03:15:22;82.17;;;33.23;;
25345;SDS011;13300;51.032;3.710;2022-12-18T03:18:06;81.57;;;32.70;;
25345;SDS011;13300;51.032;3.710;2022-12-18T03:21:06;84.18;;;32.47;;
25345;SDS011;13300;51.032;3.710;2022-12-18T03:23:48;83.93;;;33.23;;
25345;SDS011;13300;51.032;3.710;2022-12-18T03:26:18;77.67;;;30.47;;
25345;SDS011;13300;51.032;3.710;2022-12-18T03:32:18;83.93;;;31.30;;
25345;SDS011;13300;51.032;3.710;2022-12-18T03:34:55;77.10;;;30.97;;
25345;SDS011;13300;51.032;3.710;2022-12-18T03:37:29;79.30;;;29.60;;
25345;SDS011;13300;51.032;3.710;2022-12-18T03:39:54;81.97;;;30.97;;
25345;SDS011;13300;51.032;3.710;2022-12-18T03:42:28;84.23;;;32.13;;
25345;SDS011;13300;51.032;3.710;2022-12-18T04:01:18;68.83;;;28.43;;
25345;SDS011;13300;51.032;3.710;2022-12-18T04:03:49;70.83;;;28.03;;
25345;SDS011;13300;51.032;3.710;2022-12-18T04:06:17;71.13;;;27.40;;
25345;SDS011;13300;51.032;3.710;2022-12-18T04:08:44;68.80;;;27.97;;
25345;SDS011;13300;51.032;3.710;2022-12-18T04:11:13;64.83;;;27.20;;
25345;SDS011;13300;51.032;3.710;2022-12-18T04:13:48;66.00;;;27.50;;
25345;SDS011;13300;51.032;3.710;2022-12-18T04:16:20;73.37;;;27.93;;
25345;SDS011;13300;51.032;3.710;2022-12-18T04:18:46;73.67;;;27.97;;
25345;SDS011;13300;51.032;3.710;2022-12-18T04:21:12;63.63;;;26.50;;
25345;SDS011;13300;51.032;3.710;2022-12-18T04:23:45;68.83;;;25.83;;
25345;SDS011;13300;51.032;3.710;2022-12-18T04:26:10;66.07;;;26.93;;
25345;SDS011;13300;51.032;3.710;2022-12-18T04:28:44;64.80;;;26.50;;
25345;SDS011;13300;51.032;3.710;2022-12-18T04:34:39;64.03;;;27.27;;
25345;SDS011;13300;51.032;3.710;2022-12-18T04:40:59;67.00;;;26.50;;
25345;SDS011;13300;51.032;3.710;2022-12-18T04:43:25;62.83;;;26.10;;
25345;SDS011;13300;51.032;3.710;2022-12-18T04:45:52;64.67;;;25.23;;
25345;SDS011;13300;51.032;3.710;2022-12-18T04:48:18;65.27;;;26.73;;
25345;SDS011;13300;51.032;3.710;2022-12-18T04:50:46;62.00;;;25.67;;
25345;SDS011;13300;51.032;3.710;2022-12-18T04:53:14;61.13;;;25.73;;
25345;SDS011;13300;51.032;3.710;2022-12-18T04:59:08;61.97;;;23.90;;
25345;SDS011;13300;51.032;3.710;2022-12-18T05:05:11;59.70;;;23.47;;
25345;SDS011;13300;51.032;3.710;2022-12-18T05:07:44;58.03;;;24.13;;
25345;SDS011;13300;51.032;3.710;2022-12-18T05:10:19;61.40;;;24.33;;
25345;SDS011;13300;51.032;3.710;2022-12-18T05:12:46;66.57;;;25.53;;
25345;SDS011;13300;51.032;3.710;2022-12-18T05:15:23;61.10;;;25.00;;
25345;SDS011;13300;51.032;3.710;2022-12-18T05:17:53;56.93;;;23.93;;
25345;SDS011;13300;51.032;3.710;2022-12-18T05:20:19;56.33;;;24.93;;
25345;SDS011;13300;51.032;3.710;2022-12-18T05:22:45;58.57;;;24.47;;
25345;SDS011;13300;51.032;3.710;2022-12-18T05:25:12;59.20;;;24.83;;
25345;SDS011;13300;51.032;3.710;2022-12-18T05:27:44;59.03;;;24.27;;
25345;SDS011;13300;51.032;3.710;2022-12-18T05:30:10;56.97;;;23.90;;
25345;SDS011;13300;51.032;3.710;2022-12-18T05:32:37;59.50;;;24.63;;
25345;SDS011;13300;51.032;3.710;2022-12-18T05:35:04;55.67;;;23.60;;
25345;SDS011;13300;51.032;3.710;2022-12-18T05:37:33;59.90;;;25.38;;
25345;SDS011;13300;51.032;3.710;2022-12-18T05:40:06;61.83;;;23.70;;
25345;SDS011;13300;51.032;3.710;2022-12-18T05:42:34;57.17;;;23.67;;
25345;SDS011;13300;51.032;3.710;2022-12-18T05:45:07;58.33;;;24.20;;
25345;SDS011;13300;51.032;3.710;2022-12-18T05:47:38;63.20;;;25.17;;
25345;SDS011;13300;51.032;3.710;2022-12-18T05:50:07;55.63;;;23.90;;
25345;SDS011;13300;51.032;3.710;2022-12-18T05:52:34;61.10;;;24.57;;
25345;SDS011;13300;51.032;3.710;2022-12-18T05:55:06;64.83;;;25.43;;
25345;SDS011;13300;51.032;3.710;2022-12-18T05:58:26;59.43;;;23.27;;
25345;SDS011;13300;51.032;3.710;2022-12-18T06:01:27;58.17;;;22.93;;
25345;SDS011;13300;51.032;3.710;2022-12-18T06:03:47;53.57;;;23.13;;
25345;SDS011;13300;51.032;3.710;2022-12-18T06:09:49;60.80;;;24.03;;
25345;SDS011;13300;51.032;3.710;2022-12-18T06:15:42;55.47;;;22.57;;
25345;SDS011;13300;51.032;3.710;2022-12-18T06:18:10;54.73;;;23.77;;
25345;SDS011;13300;51.032;3.710;2022-12-18T06:20:37;54.00;;;22.90;;
25345;SDS011;13300;51.032;3.710;2022-12-18T06:23:09;56.27;;;23.53;;
25345;SDS011;13300;51.032;3.710;2022-12-18T06:25:37;56.37;;;23.13;;
25345;SDS011;13300;51.032;3.710;2022-12-18T06:28:04;55.77;;;23.53;;
25345;SDS011;13300;51.032;3.710;2022-12-18T06:33:56;56.17;;;22.13;;
25345;SDS011;13300;51.032;3.710;2022-12-18T06:36:23;52.27;;;22.13;;
25345;SDS011;13300;51.032;3.710;2022-12-18T06:38:49;53.13;;;23.10;;
25345;SDS011;13300;51.032;3.710;2022-12-18T06:41:36;54.00;;;22.03;;
25345;SDS011;13300;51.032;3.710;2022-12-18T06:44:01;49.70;;;20.80;;
25345;SDS011;13300;51.032;3.710;2022-12-18T06:46:31;45.65;;;22.48;;
25345;SDS011;13300;51.032;3.710;2022-12-18T06:49:05;42.30;;;19.07;;
25345;SDS011;13300;51.032;3.710;2022-12-18T06:51:31;46.57;;;21.10;;
25345;SDS011;13300;51.032;3.710;2022-12-18T06:53:58;46.77;;;20.47;;
25345;SDS011;13300;51.032;3.710;2022-12-18T06:56:25;45.90;;;20.40;;
25345;SDS011;13300;51.032;3.710;2022-12-18T06:58:51;47.63;;;20.20;;
25345;SDS011;13300;51.032;3.710;2022-12-18T07:04:43;43.07;;;19.57;;
25345;SDS011;13300;51.032;3.710;2022-12-18T07:07:20;44.10;;;19.80;;
25345;SDS011;13300;51.032;3.710;2022-12-18T07:16:17;41.60;;;18.57;;
25345;SDS011;13300;51.032;3.710;2022-12-18T07:18:45;44.73;;;19.93;;
25345;SDS011;13300;51.032;3.710;2022-12-18T07:21:12;43.50;;;18.50;;
25345;SDS011;13300;51.032;3.710;2022-12-18T07:23:41;47.08;;;19.33;;
25345;SDS011;13300;51.032;3.710;2022-12-18T07:26:07;43.37;;;18.33;;
25345;SDS011;13300;51.032;3.710;2022-12-18T07:28:40;43.90;;;19.87;;
25345;SDS011;13300;51.032;3.710;2022-12-18T07:31:18;47.77;;;19.97;;
25345;SDS011;13300;51.032;3.710;2022-12-18T07:33:53;42.47;;;18.53;;
25345;SDS011;13300;51.032;3.710;2022-12-18T07:36:19;42.20;;;18.63;;
25345;SDS011;13300;51.032;3.710;2022-12-18T07:38:48;40.70;;;18.00;;
25345;SDS011;13300;51.032;3.710;2022-12-18T07:41:14;38.77;;;18.37;;
25345;SDS011;13300;51.032;3.710;2022-12-18T07:44:02;41.20;;;17.80;;
25345;SDS011;13300;51.032;3.710;2022-12-18T07:46:28;44.90;;;18.67;;
25345;SDS011;13300;51.032;3.710;2022-12-18T07:49:09;45.00;;;19.03;;
25345;SDS011;13300;51.032;3.710;2022-12-18T07:54:59;41.27;;;17.90;;
25345;SDS011;13300;51.032;3.710;2022-12-18T08:01:04;38.40;;;17.30;;
25345;SDS011;13300;51.032;3.710;2022-12-18T08:07:12;39.57;;;17.77;;
25345;SDS011;13300;51.032;3.710;2022-12-18T08:09:38;36.17;;;16.65;;
25345;SDS011;13300;51.032;3.710;2022-12-18T08:12:04;40.43;;;17.13;;
25345;SDS011;13300;51.032;3.710;2022-12-18T08:14:31;37.77;;;16.90;;
25345;SDS011;13300;51.032;3.710;2022-12-18T08:16:58;37.63;;;16.83;;
25345;SDS011;13300;51.032;3.710;2022-12-18T08:19:23;35.73;;;16.93;;
25345;SDS011;13300;51.032;3.710;2022-12-18T08:25:11;37.20;;;17.00;;
25345;SDS011;13300;51.032;3.710;2022-12-18T08:27:39;34.03;;;16.77;;
25345;SDS011;13300;51.032;3.710;2022-12-18T08:30:06;36.70;;;16.57;;
25345;SDS011;13300;51.032;3.710;2022-12-18T08:33:00;30.63;;;16.00;;
25345;SDS011;13300;51.032;3.710;2022-12-18T08:35:35;32.97;;;16.30;;
25345;SDS011;13300;51.032;3.710;2022-12-18T08:52:54;32.57;;;15.10;;
25345;SDS011;13300;51.032;3.710;2022-12-18T08:55:27;29.03;;;15.47;;
25345;SDS011;13300;51.032;3.710;2022-12-18T09:01:49;30.77;;;16.30;;
25345;SDS011;13300;51.032;3.710;2022-12-18T09:07:25;32.00;;;15.13;;
25345;SDS011;13300;51.032;3.710;2022-12-18T09:10:02;36.45;;;16.17;;
25345;SDS011;13300;51.032;3.710;2022-12-18T09:12:35;37.40;;;16.97;;
25345;SDS011;13300;51.032;3.710;2022-12-18T09:15:01;35.20;;;15.97;;
25345;SDS011;13300;51.032;3.710;2022-12-18T09:17:28;30.97;;;15.83;;
25345;SDS011;13300;51.032;3.710;2022-12-18T09:19:57;27.50;;;14.60;;
25345;SDS011;13300;51.032;3.710;2022-12-18T09:22:29;32.20;;;15.43;;
25345;SDS011;13300;51.032;3.710;2022-12-18T09:24:56;33.80;;;15.60;;
25345;SDS011;13300;51.032;3.710;2022-12-18T09:27:29;33.15;;;15.50;;
25345;SDS011;13300;51.032;3.710;2022-12-18T09:29:56;28.30;;;15.00;;
25345;SDS011;13300;51.032;3.710;2022-12-18T09:32:47;32.43;;;15.97;;
25345;SDS011;13300;51.032;3.710;2022-12-18T09:35:22;31.30;;;14.93;;
25345;SDS011;13300;51.032;3.710;2022-12-18T09:40:36;33.63;;;14.87;;
25345;SDS011;13300;51.032;3.710;2022-12-18T09:49:14;29.77;;;15.45;;
25345;SDS011;13300;51.032;3.710;2022-12-18T09:54:50;32.15;;;15.95;;
25345;SDS011;13300;51.032;3.710;2022-12-18T09:57:40;28.35;;;15.35;;
25345;SDS011;13300;51.032;3.710;2022-12-18T10:00:54;31.10;;;15.30;;
25345;SDS011;13300;51.032;3.710;2022-12-18T10:03:22;34.10;;;16.15;;
25345;SDS011;13300;51.032;3.710;2022-12-18T10:41:03;32.38;;;15.52;;
25345;SDS011;13300;51.032;3.710;2022-12-18T10:46:46;27.52;;;15.15;;
25345;SDS011;13300;51.032;3.710;2022-12-18T10:53:18;28.58;;;14.38;;
25345;SDS011;13300;51.032;3.710;2022-12-18T11:23:11;23.65;;;12.75;;
25345;SDS011;13300;51.032;3.710;2022-12-18T11:28:44;26.33;;;13.55;;
25345;SDS011;13300;51.032;3.710;2022-12-18T11:31:40;26.30;;;12.30;;
25345;SDS011;13300;51.032;3.710;2022-12-18T11:37:31;21.48;;;11.50;;
25345;SDS011;13300;51.032;3.710;2022-12-18T11:40:10;20.98;;;11.85;;
25345;SDS011;13300;51.032;3.710;2022-12-18T11:45:51;22.17;;;11.80;;
25345;SDS011;13300;51.032;3.710;2022-12-18T11:51:43;23.60;;;12.13;;
25345;SDS011;13300;51.032;3.710;2022-12-18T11:54:29;20.90;;;11.93;;
25345;SDS011;13300;51.032;3.710;2022-12-18T11:57:30;24.63;;;13.23;;
25345;SDS011;13300;51.032;3.710;2022-12-18T12:00:20;25.70;;;12.20;;
25345;SDS011;13300;51.032;3.710;2022-12-18T12:15:19;25.58;;;12.88;;
25345;SDS011;13300;51.032;3.710;2022-12-18T12:39:01;30.10;;;16.52;;
25345;SDS011;13300;51.032;3.710;2022-12-18T12:41:53;27.58;;;14.70;;
25345;SDS011;13300;51.032;3.710;2022-12-18T12:45:14;25.45;;;13.73;;
25345;SDS011;13300;51.032;3.710;2022-12-18T12:50:51;34.03;;;16.95;;
25345;SDS011;13300;51.032;3.710;2022-12-18T12:53:54;32.33;;;16.63;;
25345;SDS011;13300;51.032;3.710;2022-12-18T14:00:34;39.35;;;18.83;;
25345;SDS011;13300;51.032;3.710;2022-12-18T14:04:37;36.88;;;17.70;;
25345;SDS011;13300;51.032;3.710;2022-12-18T14:07:28;41.30;;;18.20;;
25345;SDS011;13300;51.032;3.710;2022-12-18T14:44:21;36.88;;;16.35;;
25345;SDS011;13300;51.032;3.710;2022-12-18T15:44:52;41.83;;;18.65;;
25345;SDS011;13300;51.032;3.710;2022-12-18T15:51:38;41.20;;;19.25;;
25345;SDS011;13300;51.032;3.710;2022-12-18T15:58:30;37.88;;;17.55;;
25345;SDS011;13300;51.032;3.710;2022-12-18T16:01:03;40.85;;;19.02;;
25345;SDS011;13300;51.032;3.710;2022-12-18T16:03:37;40.97;;;18.73;;
25345;SDS011;13300;51.032;3.710;2022-12-18T16:08:51;42.50;;;19.27;;
25345;SDS011;13300;51.032;3.710;2022-12-18T16:11:27;35.85;;;17.58;;
25345;SDS011;13300;51.032;3.710;2022-12-18T16:14:23;42.00;;;18.35;;
25345;SDS011;13300;51.032;3.710;2022-12-18T16:16:58;38.75;;;18.30;;
25345;SDS011;13300;51.032;3.710;2022-12-18T16:19:39;40.83;;;19.52;;
25345;SDS011;13300;51.032;3.710;2022-12-18T16:22:05;40.53;;;18.35;;
25345;SDS011;13300;51.032;3.710;2022-12-18T16:24:32;39.95;;;18.05;;
25345;SDS011;13300;51.032;3.710;2022-12-18T16:33:01;44.10;;;19.75;;
25345;SDS011;13300;51.032;3.710;2022-12-18T16:35:27;36.20;;;17.30;;
25345;SDS011;13300;51.032;3.710;2022-12-18T16:38:02;46.10;;;19.38;;
25345;SDS011;13300;51.032;3.710;2022-12-18T16:40:30;40.35;;;18.40;;
25345;SDS011;13300;51.032;3.710;2022-12-18T16:42:58;39.92;;;18.02;;
25345;SDS011;13300;51.032;3.710;2022-12-18T16:45:24;39.10;;;17.92;;
25345;SDS011;13300;51.032;3.710;2022-12-18T16:47:50;35.88;;;19.17;;
25345;SDS011;13300;51.032;3.710;2022-12-18T16:50:23;43.30;;;18.15;;
25345;SDS011;13300;51.032;3.710;2022-12-18T16:52:49;41.83;;;18.33;;
25345;SDS011;13300;51.032;3.710;2022-12-18T16:55:14;42.47;;;18.92;;
25345;SDS011;13300;51.032;3.710;2022-12-18T16:57:40;40.95;;;18.52;;
25345;SDS011;13300;51.032;3.710;2022-12-18T17:00:07;37.17;;;18.13;;
25345;SDS011;13300;51.032;3.710;2022-12-18T17:02:34;42.97;;;17.95;;
25345;SDS011;13300;51.032;3.710;2022-12-18T17:08:16;35.25;;;13.73;;
25345;SDS011;13300;51.032;3.710;2022-12-18T17:17:07;44.33;;;20.27;;
25345;SDS011;13300;51.032;3.710;2022-12-18T17:19:39;42.25;;;19.38;;
25345;SDS011;13300;51.032;3.710;2022-12-18T17:22:04;44.55;;;20.73;;
25345;SDS011;13300;51.032;3.710;2022-12-18T17:24:32;43.22;;;20.65;;
25345;SDS011;13300;51.032;3.710;2022-12-18T17:26:57;47.85;;;19.70;;
25345;SDS011;13300;51.032;3.710;2022-12-18T17:29:23;45.42;;;18.90;;
25345;SDS011;13300;51.032;3.710;2022-12-18T17:31:49;44.58;;;20.23;;
25345;SDS011;13300;51.032;3.710;2022-12-18T17:34:14;45.60;;;20.75;;
25345;SDS011;13300;51.032;3.710;2022-12-18T17:36:40;45.42;;;20.63;;
25345;SDS011;13300;51.032;3.710;2022-12-18T17:39:10;38.15;;;17.05;;
25345;SDS011;13300;51.032;3.710;2022-12-18T17:42:00;49.85;;;22.60;;
25345;SDS011;13300;51.032;3.710;2022-12-18T17:45:09;42.05;;;18.48;;
25345;SDS011;13300;51.032;3.710;2022-12-18T17:47:35;46.25;;;19.85;;
25345;SDS011;13300;51.032;3.710;2022-12-18T17:50:00;46.63;;;20.00;;
25345;SDS011;13300;51.032;3.710;2022-12-18T17:52:32;41.33;;;18.10;;
25345;SDS011;13300;51.032;3.710;2022-12-18T17:58:36;46.58;;;18.77;;
25345;SDS011;13300;51.032;3.710;2022-12-18T18:01:02;42.88;;;18.50;;
25345;SDS011;13300;51.032;3.710;2022-12-18T18:03:30;51.15;;;21.45;;
25345;SDS011;13300;51.032;3.710;2022-12-18T18:09:41;42.90;;;17.40;;
25345;SDS011;13300;51.032;3.710;2022-12-18T18:12:07;47.22;;;19.48;;
25345;SDS011;13300;51.032;3.710;2022-12-18T18:14:51;43.05;;;19.48;;
25345;SDS011;13300;51.032;3.710;2022-12-18T18:17:17;52.38;;;21.95;;
25345;SDS011;13300;51.032;3.710;2022-12-18T18:19:43;52.50;;;21.67;;
25345;SDS011;13300;51.032;3.710;2022-12-18T18:22:09;52.33;;;22.17;;
25345;SDS011;13300;51.032;3.710;2022-12-18T18:24:35;52.45;;;23.25;;
25345;SDS011;13300;51.032;3.710;2022-12-18T18:27:00;52.03;;;22.95;;
25345;SDS011;13300;51.032;3.710;2022-12-18T18:29:29;53.67;;;24.35;;
25345;SDS011;13300;51.032;3.710;2022-12-18T18:31:57;50.33;;;21.48;;
25345;SDS011;13300;51.032;3.710;2022-12-18T18:34:25;48.25;;;21.63;;
25345;SDS011;13300;51.032;3.710;2022-12-18T18:36:57;53.58;;;22.35;;
25345;SDS011;13300;51.032;3.710;2022-12-18T18:39:23;54.17;;;22.42;;
25345;SDS011;13300;51.032;3.710;2022-12-18T18:41:49;53.30;;;21.38;;
25345;SDS011;13300;51.032;3.710;2022-12-18T18:44:16;55.72;;;22.88;;
25345;SDS011;13300;51.032;3.710;2022-12-18T18:46:42;56.45;;;21.60;;
25345;SDS011;13300;51.032;3.710;2022-12-18T18:49:11;58.33;;;23.90;;
25345;SDS011;13300;51.032;3.710;2022-12-18T18:51:38;59.40;;;23.27;;
25345;SDS011;13300;51.032;3.710;2022-12-18T18:54:04;55.53;;;21.88;;
25345;SDS011;13300;51.032;3.710;2022-12-18T18:56:30;49.40;;;22.02;;
25345;SDS011;13300;51.032;3.710;2022-12-18T18:58:59;61.05;;;24.77;;
25345;SDS011;13300;51.032;3.710;2022-12-18T19:01:26;58.97;;;25.20;;
25345;SDS011;13300;51.032;3.710;2022-12-18T19:07:22;64.22;;;24.88;;
25345;SDS011;13300;51.032;3.710;2022-12-18T19:09:55;66.07;;;28.25;;
25345;SDS011;13300;51.032;3.710;2022-12-18T19:12:21;67.45;;;24.90;;
25345;SDS011;13300;51.032;3.710;2022-12-18T19:15:34;64.35;;;26.35;;
25345;SDS011;13300;51.032;3.710;2022-12-18T19:18:01;64.07;;;25.45;;
25345;SDS011;13300;51.032;3.710;2022-12-18T19:20:27;59.72;;;24.50;;
25345;SDS011;13300;51.032;3.710;2022-12-18T19:22:56;63.72;;;26.45;;
25345;SDS011;13300;51.032;3.710;2022-12-18T19:25:22;64.72;;;27.17;;
25345;SDS011;13300;51.032;3.710;2022-12-18T19:27:49;63.78;;;27.13;;
25345;SDS011;13300;51.032;3.710;2022-12-18T19:30:15;69.75;;;25.88;;
25345;SDS011;13300;51.032;3.710;2022-12-18T19:32:42;68.55;;;26.35;;
25345;SDS011;13300;51.032;3.710;2022-12-18T19:35:08;61.35;;;25.13;;
25345;SDS011;13300;51.032;3.710;2022-12-18T19:37:37;72.95;;;30.35;;
25345;SDS011;13300;51.032;3.710;2022-12-18T19:40:02;64.20;;;26.50;;
25345;SDS011;13300;51.032;3.710;2022-12-18T19:42:28;60.85;;;24.98;;
25345;SDS011;13300;51.032;3.710;2022-12-18T19:44:54;68.93;;;27.77;;
25345;SDS011;13300;51.032;3.710;2022-12-18T19:47:20;64.10;;;24.83;;
25345;SDS011;13300;51.032;3.710;2022-12-18T19:49:45;62.83;;;27.48;;
25345;SDS011;13300;51.032;3.710;2022-12-18T19:52:36;61.17;;;24.52;;
25345;SDS011;13300;51.032;3.710;2022-12-18T19:55:03;62.22;;;24.45;;
25345;SDS011;13300;51.032;3.710;2022-12-18T19:57:35;61.80;;;24.98;;
25345;SDS011;13300;51.032;3.710;2022-12-18T20:00:01;64.82;;;26.30;;
25345;SDS011;13300;51.032;3.710;2022-12-18T20:02:26;60.90;;;25.15;;
25345;SDS011;13300;51.032;3.710;2022-12-18T20:04:55;64.10;;;24.52;;
25345;SDS011;13300;51.032;3.710;2022-12-18T20:07:21;65.47;;;24.92;;
25345;SDS011;13300;51.032;3.710;2022-12-18T20:09:55;60.08;;;25.48;;
25345;SDS011;13300;51.032;3.710;2022-12-18T20:12:20;59.65;;;25.33;;
25345;SDS011;13300;51.032;3.710;2022-12-18T20:14:46;51.95;;;22.67;;
25345;SDS011;13300;51.032;3.710;2022-12-18T20:17:12;63.53;;;27.65;;
25345;SDS011;13300;51.032;3.710;2022-12-18T20:19:37;61.78;;;25.42;;
25345;SDS011;13300;51.032;3.710;2022-12-18T20:22:06;57.05;;;23.42;;
25345;SDS011;13300;51.032;3.710;2022-12-18T20:24:35;67.07;;;27.00;;
25345;SDS011;13300;51.032;3.710;2022-12-18T20:27:00;70.22;;;29.40;;
25345;SDS011;13300;51.032;3.710;2022-12-18T20:29:26;59.58;;;23.42;;
25345;SDS011;13300;51.032;3.710;2022-12-18T20:31:52;57.53;;;25.42;;
25345;SDS011;13300;51.032;3.710;2022-12-18T20:34:18;57.83;;;24.05;;
25345;SDS011;13300;51.032;3.710;2022-12-18T20:36:52;55.70;;;24.67;;
25345;SDS011;13300;51.032;3.710;2022-12-18T20:39:17;62.22;;;25.83;;
25345;SDS011;13300;51.032;3.710;2022-12-18T20:41:43;58.95;;;24.17;;
25345;SDS011;13300;51.032;3.710;2022-12-18T20:44:13;57.20;;;22.65;;
25345;SDS011;13300;51.032;3.710;2022-12-18T20:46:40;59.50;;;25.13;;
25345;SDS011;13300;51.032;3.710;2022-12-18T20:49:06;63.78;;;24.88;;
25345;SDS011;13300;51.032;3.710;2022-12-18T20:51:33;63.70;;;24.92;;
25345;SDS011;13300;51.032;3.710;2022-12-18T20:54:05;54.95;;;24.40;;
25345;SDS011;13300;51.032;3.710;2022-12-18T20:56:30;58.13;;;23.83;;
25345;SDS011;13300;51.032;3.710;2022-12-18T20:58:57;53.65;;;23.52;;
25345;SDS011;13300;51.032;3.710;2022-12-18T21:01:32;52.75;;;23.77;;
25345;SDS011;13300;51.032;3.710;2022-12-18T21:04:00;55.88;;;21.95;;
25345;SDS011;13300;51.032;3.710;2022-12-18T21:06:25;60.50;;;27.45;;
25345;SDS011;13300;51.032;3.710;2022-12-18T21:08:51;54.03;;;23.15;;
25345;SDS011;13300;51.032;3.710;2022-12-18T21:14:08;54.10;;;22.00;;
25345;SDS011;13300;51.032;3.710;2022-12-18T21:16:38;54.60;;;23.73;;
25345;SDS011;13300;51.032;3.710;2022-12-18T21:19:04;56.50;;;25.00;;
25345;SDS011;13300;51.032;3.710;2022-12-18T21:21:30;46.70;;;22.17;;
25345;SDS011;13300;51.032;3.710;2022-12-18T21:23:56;49.45;;;22.15;;
25345;SDS011;13300;51.032;3.710;2022-12-18T21:26:25;53.22;;;22.77;;
25345;SDS011;13300;51.032;3.710;2022-12-18T21:28:52;42.47;;;18.55;;
25345;SDS011;13300;51.032;3.710;2022-12-18T21:31:20;50.85;;;21.27;;
25345;SDS011;13300;51.032;3.710;2022-12-18T21:33:47;49.28;;;21.83;;
25345;SDS011;13300;51.032;3.710;2022-12-18T21:36:13;48.63;;;20.45;;
25345;SDS011;13300;51.032;3.710;2022-12-18T21:38:39;45.55;;;22.50;;
25345;SDS011;13300;51.032;3.710;2022-12-18T21:41:09;49.75;;;24.75;;
25345;SDS011;13300;51.032;3.710;2022-12-18T21:43:53;45.22;;;19.38;;
25345;SDS011;13300;51.032;3.710;2022-12-18T21:46:35;49.05;;;21.05;;
25345;SDS011;13300;51.032;3.710;2022-12-18T21:49:03;47.63;;;19.48;;
25345;SDS011;13300;51.032;3.710;2022-12-18T21:51:30;50.95;;;22.30;;
25345;SDS011;13300;51.032;3.710;2022-12-18T21:53:57;26.00;;;12.20;;
25345;SDS011;13300;51.032;3.710;2022-12-18T21:56:22;44.70;;;20.42;;
25345;SDS011;13300;51.032;3.710;2022-12-18T21:58:49;45.42;;;20.73;;
25345;SDS011;13300;51.032;3.710;2022-12-18T22:01:15;47.40;;;22.30;;
25345;SDS011;13300;51.032;3.710;2022-12-18T22:03:44;47.28;;;18.98;;
25345;SDS011;13300;51.032;3.710;2022-12-18T22:06:10;50.60;;;20.92;;
25345;SDS011;13300;51.032;3.710;2022-12-18T22:08:37;48.05;;;20.65;;
25345;SDS011;13300;51.032;3.710;2022-12-18T22:11:03;47.15;;;20.27;;
25345;SDS011;13300;51.032;3.710;2022-12-18T22:13:28;45.13;;;20.58;;
25345;SDS011;13300;51.032;3.710;2022-12-18T22:15:54;38.38;;;18.42;;
25345;SDS011;13300;51.032;3.710;2022-12-18T22:18:20;46.90;;;21.15;;
25345;SDS011;13300;51.032;3.710;2022-12-18T22:20:47;46.35;;;20.58;;
25345;SDS011;13300;51.032;3.710;2022-12-18T22:23:13;44.67;;;20.08;;
25345;SDS011;13300;51.032;3.710;2022-12-18T22:25:39;44.83;;;19.73;;
25345;SDS011;13300;51.032;3.710;2022-12-18T22:28:04;48.45;;;22.92;;
25345;SDS011;13300;51.032;3.710;2022-12-18T22:30:49;46.83;;;20.00;;